Time;durP1;ratioP1;P1;durP2;ratioP2;P2;SDS_P1;SDS_P2;PMS_P1;PMS_P2;Temp;Humidity;BMP_temperature;BMP_pressure;BME280_temperature;BME280_humidity;BME280_pressure;Samples;Min_cycle;Max_cycle;Signal;HPM_P1;HPM_P2
2023/12/15 00:00:44;;;;;;;0.80;0.80;;;5.30;44.70;;;;;;4925612;29;20039;-74
2023/12/15 00:03:10;;;;;;;1.45;1.17;;;5.30;70.80;;;;;;4924616;29;20036;-74
2023/12/15 00:05:36;;;;;;;0.75;0.75;;;5.30;64.60;;;;;;4919494;29;20055;-75
2023/12/15 00:08:02;;;;;;;1.38;1.27;;;5.30;54.90;;;;;;4926337;29;20042;-74
2023/12/15 00:10:28;;;;;;;4.65;1.63;;;5.30;62.70;;;;;;4927469;29;20028;-74
2023/12/15 00:12:54;;;;;;;1.08;0.95;;;5.30;69.70;;;;;;4927050;29;20042;-74
2023/12/15 00:15:20;;;;;;;2.03;1.80;;;5.30;53.80;;;;;;4922384;29;20043;-74
2023/12/15 00:17:46;;;;;;;0.20;0.20;;;5.30;57.40;;;;;;4921541;29;20040;-74
2023/12/15 00:20:13;;;;;;;0.35;0.35;;;5.30;53.50;;;;;;4926347;29;20031;-74
2023/12/15 00:22:39;;;;;;;1.40;1.35;;;5.20;35.70;;;;;;4928918;29;20043;-75
2023/12/15 00:25:05;;;;;;;0.45;0.45;;;5.10;36.40;;;;;;4925503;29;20039;-74
2023/12/15 00:27:31;;;;;;;0.73;0.55;;;4.90;42.10;;;;;;4921948;29;20036;-74
2023/12/15 00:29:57;;;;;;;0.75;0.75;;;4.90;63.80;;;;;;4940796;29;20019;-74
2023/12/15 00:32:24;;;;;;;0.50;0.50;;;4.70;95.70;;;;;;4927521;29;20036;-74
2023/12/15 00:34:50;;;;;;;1.20;1.02;;;4.70;99.90;;;;;;4924100;29;20489;-74
2023/12/15 00:37:16;;;;;;;1.85;1.30;;;4.80;99.90;;;;;;4919821;29;20036;-74
2023/12/15 00:39:42;;;;;;;0.68;0.60;;;4.70;99.90;;;;;;4925554;29;20055;-75
2023/12/15 00:42:08;;;;;;;1.67;1.58;;;4.60;99.90;;;;;;4926262;29;20027;-74
2023/12/15 00:44:35;;;;;;;5.95;2.22;;;4.60;99.90;;;;;;4919585;29;20056;-74
2023/12/15 00:47:01;;;;;;;1.13;1.13;;;4.60;99.90;;;;;;4935588;28;20057;-74
2023/12/15 00:49:27;;;;;;;1.00;0.82;;;4.50;99.90;;;;;;4960855;28;20039;-74
2023/12/15 00:51:54;;;;;;;0.90;0.90;;;4.50;99.90;;;;;;4963513;28;20046;-74
2023/12/15 00:54:20;;;;;;;1.73;1.63;;;4.40;99.90;;;;;;4967286;28;20468;-74
2023/12/15 00:56:47;;;;;;;2.78;2.05;;;4.40;99.90;;;;;;4944466;28;20057;-74
2023/12/15 00:59:13;;;;;;;0.68;0.38;;;4.40;99.90;;;;;;4962902;28;20031;-74
2023/12/15 01:01:39;;;;;;;1.05;1.02;;;4.30;99.90;;;;;;4964790;28;20388;-74
2023/12/15 01:04:05;;;;;;;0.13;0.13;;;4.40;99.90;;;;;;4964327;28;20038;-74
2023/12/15 01:06:31;;;;;;;0.80;0.80;;;4.40;99.90;;;;;;4963016;28;20044;-74
2023/12/15 01:08:58;;;;;;;1.80;1.33;;;4.30;99.90;;;;;;4961477;28;20499;-74
2023/12/15 01:11:24;;;;;;;0.75;0.75;;;4.30;99.90;;;;;;4967741;28;20030;-74
2023/12/15 01:13:50;;;;;;;0.93;0.90;;;4.30;99.90;;;;;;4962215;28;20465;-74
2023/12/15 01:16:16;;;;;;;1.00;0.98;;;4.30;99.90;;;;;;4963836;28;20393;-74
2023/12/15 01:18:42;;;;;;;1.90;1.80;;;4.30;99.90;;;;;;4961485;28;20469;-75
2023/12/15 01:21:08;;;;;;;1.05;0.52;;;4.30;99.90;;;;;;4960029;28;20034;-74
2023/12/15 01:23:37;;;;;;;2.00;1.90;;;4.30;99.90;;;;;;4963064;28;20027;-74
2023/12/15 01:26:04;;;;;;;1.02;1.02;;;4.20;99.90;;;;;;4963813;28;20497;-74
2023/12/15 01:28:30;;;;;;;1.65;1.55;;;4.20;99.90;;;;;;4962857;28;20040;-74
2023/12/15 01:31:01;;;;;;;5.43;1.38;;;4.20;99.90;;;;;;4962984;28;20054;-74
2023/12/15 01:33:28;;;;;;;0.88;0.80;;;4.10;99.90;;;;;;4963544;28;20042;-74
2023/12/15 01:35:54;;;;;;;1.48;1.42;;;4.10;99.90;;;;;;4962935;28;20046;-74
2023/12/15 01:38:20;;;;;;;1.30;1.05;;;4.00;99.90;;;;;;4961977;28;20054;-74
2023/12/15 01:40:47;;;;;;;1.98;0.63;;;4.10;99.90;;;;;;4960082;28;20505;-74
2023/12/15 01:43:13;;;;;;;0.65;0.63;;;4.10;99.90;;;;;;4961858;28;20027;-74
2023/12/15 01:45:39;;;;;;;0.57;0.57;;;4.10;99.90;;;;;;4961286;28;20035;-75
2023/12/15 01:48:07;;;;;;;0.60;0.60;;;4.10;99.90;;;;;;4966143;28;20058;-73
2023/12/15 01:50:33;;;;;;;0.88;0.88;;;4.00;99.90;;;;;;4962423;28;20042;-74
2023/12/15 01:52:59;;;;;;;0.95;0.95;;;4.00;99.90;;;;;;4958826;28;20023;-74
2023/12/15 01:55:25;;;;;;;1.50;1.40;;;4.00;99.90;;;;;;4961342;28;20035;-74
2023/12/15 01:57:51;;;;;;;2.00;1.77;;;4.10;99.90;;;;;;4964458;28;20472;-74
2023/12/15 02:00:17;;;;;;;0.45;0.45;;;4.00;99.90;;;;;;4965060;28;20388;-74
2023/12/15 02:02:43;;;;;;;6.03;1.55;;;4.00;99.90;;;;;;4958451;28;20051;-74
2023/12/15 02:05:10;;;;;;;1.17;1.08;;;4.10;99.90;;;;;;4960761;28;20042;-74
2023/12/15 02:07:36;;;;;;;1.25;1.15;;;4.10;99.90;;;;;;4963485;28;20031;-74
2023/12/15 02:10:03;;;;;;;1.30;1.20;;;4.10;99.90;;;;;;4964101;28;20813;-74
2023/12/15 02:12:29;;;;;;;1.55;1.20;;;4.10;99.90;;;;;;4965504;28;20035;-74
2023/12/15 02:14:55;;;;;;;0.30;0.30;;;4.10;99.90;;;;;;4958127;28;20385;-74
2023/12/15 02:17:22;;;;;;;1.05;1.00;;;4.10;99.90;;;;;;4965545;28;20038;-74
2023/12/15 02:19:48;;;;;;;1.33;1.17;;;4.20;99.90;;;;;;4967164;28;20039;-74
2023/12/15 02:22:14;;;;;;;1.45;0.55;;;4.10;99.90;;;;;;4967246;28;20035;-73
2023/12/15 02:24:40;;;;;;;0.43;0.40;;;4.10;99.90;;;;;;4963069;28;20417;-74
2023/12/15 02:27:07;;;;;;;1.92;1.05;;;4.10;99.90;;;;;;4959856;28;20046;-74
2023/12/15 02:29:34;;;;;;;1.45;1.05;;;4.10;99.90;;;;;;4968780;28;20389;-74
2023/12/15 02:32:00;;;;;;;0.65;0.65;;;4.10;99.90;;;;;;4967412;28;20038;-74
2023/12/15 02:34:27;;;;;;;0.50;0.50;;;4.10;99.90;;;;;;4965409;28;20046;-74
2023/12/15 02:36:53;;;;;;;0.88;0.77;;;4.10;99.90;;;;;;4959238;28;20050;-74
2023/12/15 02:39:19;;;;;;;2.55;1.40;;;4.10;99.90;;;;;;4967219;28;20034;-74
2023/12/15 02:41:46;;;;;;;0.68;0.68;;;4.10;99.90;;;;;;4968113;28;20039;-74
2023/12/15 02:44:12;;;;;;;0.35;0.35;;;4.10;99.90;;;;;;4950020;28;20054;-74
2023/12/15 02:46:38;;;;;;;2.67;2.47;;;4.10;99.90;;;;;;4962136;28;20062;-73
2023/12/15 02:49:04;;;;;;;0.50;0.50;;;4.20;99.90;;;;;;4946814;28;20051;-74
2023/12/15 02:51:31;;;;;;;3.20;2.40;;;4.10;99.90;;;;;;4967501;28;20054;-73
2023/12/15 02:54:00;;;;;;;0.75;0.75;;;4.10;99.90;;;;;;4966585;28;20106;-74
2023/12/15 02:56:27;;;;;;;1.13;0.93;;;4.10;99.90;;;;;;4960773;28;20046;-74
2023/12/15 02:58:53;;;;;;;0.10;0.10;;;4.20;99.90;;;;;;4956112;28;20043;-74
2023/12/15 03:01:20;;;;;;;0.50;0.50;;;4.20;99.90;;;;;;4966793;28;20046;-74
2023/12/15 03:03:46;;;;;;;0.90;0.90;;;4.20;99.90;;;;;;4968647;28;20035;-74
2023/12/15 03:06:12;;;;;;;1.42;0.68;;;4.20;99.90;;;;;;4960950;28;20035;-74
2023/12/15 03:08:38;;;;;;;1.92;0.88;;;4.20;99.90;;;;;;4960904;28;20373;-74
2023/12/15 03:11:05;;;;;;;0.35;0.35;;;4.10;99.90;;;;;;4939083;28;20039;-74
2023/12/15 03:13:31;;;;;;;0.43;0.43;;;4.20;99.90;;;;;;4967583;28;20042;-74
2023/12/15 03:16:11;;;;;;;0.95;0.73;;;4.10;99.90;;;;;;4963313;28;20415;-74
2023/12/15 03:18:38;;;;;;;1.20;1.10;;;4.10;99.90;;;;;;4959544;28;20481;-74
2023/12/15 03:21:04;;;;;;;0.75;0.75;;;4.10;99.90;;;;;;4955385;28;20028;-74
2023/12/15 03:23:30;;;;;;;13.55;1.30;;;4.10;99.90;;;;;;4966582;28;20460;-74
2023/12/15 03:25:57;;;;;;;1.50;1.40;;;4.10;99.90;;;;;;4966996;28;20031;-74
2023/12/15 03:28:23;;;;;;;1.15;1.15;;;4.00;99.90;;;;;;4959325;28;20031;-74
2023/12/15 03:30:50;;;;;;;0.80;0.55;;;4.10;99.90;;;;;;4963216;28;20038;-74
2023/12/15 03:33:16;;;;;;;0.85;0.85;;;4.10;99.90;;;;;;4964701;28;20039;-74
2023/12/15 03:35:42;;;;;;;0.93;0.88;;;4.10;99.90;;;;;;4963405;28;20040;-74
2023/12/15 03:38:11;;;;;;;0.40;0.40;;;4.10;99.90;;;;;;4955353;28;20034;-74
2023/12/15 03:40:37;;;;;;;0.57;0.40;;;4.10;99.90;;;;;;4961403;28;20047;-74
2023/12/15 03:43:03;;;;;;;0.85;0.85;;;4.10;99.90;;;;;;4966883;28;20216;-74
2023/12/15 03:45:30;;;;;;;3.00;1.30;;;4.00;99.90;;;;;;4968115;28;20051;-72
2023/12/15 03:47:56;;;;;;;1.65;1.55;;;4.00;99.90;;;;;;4972281;28;20389;-74
2023/12/15 03:50:23;;;;;;;1.45;1.20;;;3.90;99.90;;;;;;4959649;28;20456;-74
2023/12/15 03:52:49;;;;;;;0.38;0.38;;;3.80;99.90;;;;;;4960934;28;20038;-74
2023/12/15 03:55:16;;;;;;;0.63;0.63;;;3.70;99.90;;;;;;4968363;28;20047;-74
2023/12/15 03:57:42;;;;;;;3.00;1.35;;;3.70;99.90;;;;;;4964816;28;20491;-74
2023/12/15 04:00:08;;;;;;;0.60;0.60;;;3.60;99.90;;;;;;4959639;28;20043;-74
2023/12/15 04:02:35;;;;;;;1.27;0.55;;;3.60;99.90;;;;;;4961506;28;20039;-74
2023/12/15 04:05:01;;;;;;;1.90;0.47;;;3.50;99.90;;;;;;4964503;28;20464;-74
2023/12/15 04:07:28;;;;;;;4.78;1.52;;;3.40;99.90;;;;;;4967192;28;20491;-74
2023/12/15 04:09:54;;;;;;;0.47;0.47;;;3.40;1.00;;;;;;4964065;28;20035;-74
2023/12/15 04:12:20;;;;;;;1.08;1.00;;;3.40;1.00;;;;;;4962052;28;20035;-73
2023/12/15 04:14:46;;;;;;;0.90;0.90;;;3.30;1.00;;;;;;4960300;28;20027;-74
2023/12/15 04:17:12;;;;;;;0.75;0.75;;;3.20;1.00;;;;;;4966705;28;20046;-74
2023/12/15 04:19:39;;;;;;;0.40;0.40;;;3.10;1.00;;;;;;4966845;28;20046;-74
2023/12/15 04:22:05;;;;;;;0.50;0.50;;;3.10;1.00;;;;;;4959879;28;20024;-74
2023/12/15 04:24:31;;;;;;;0.57;0.57;;;3.00;1.00;;;;;;4964029;28;20038;-73
2023/12/15 04:26:57;;;;;;;1.85;0.30;;;2.90;1.00;;;;;;4951076;28;20031;-74
2023/12/15 04:29:23;;;;;;;0.38;0.35;;;2.80;1.00;;;;;;4963493;28;20042;-73
2023/12/15 04:31:49;;;;;;;1.00;0.95;;;2.80;51.00;;;;;;4945256;28;20042;-74
2023/12/15 04:34:15;;;;;;;0.70;0.65;;;2.80;90.20;;;;;;4958836;28;20377;-74
2023/12/15 04:36:42;;;;;;;0.75;0.75;;;2.80;99.90;;;;;;4965155;28;20035;-73
2023/12/15 04:39:08;;;;;;;0.82;0.82;;;2.80;99.90;;;;;;4962206;28;20456;-74
2023/12/15 04:41:34;;;;;;;0.50;0.50;;;2.80;99.90;;;;;;4965858;28;20473;-73
2023/12/15 04:44:00;;;;;;;1.58;1.48;;;2.80;99.90;;;;;;4959829;28;20031;-73
2023/12/15 04:46:30;;;;;;;1.00;1.00;;;2.80;99.90;;;;;;4959999;28;20047;-74
2023/12/15 04:48:58;;;;;;;0.32;0.32;;;2.80;99.90;;;;;;4962617;28;20050;-74
2023/12/15 04:51:24;;;;;;;3.30;1.13;;;2.90;99.90;;;;;;4967985;28;20035;-74
2023/12/15 04:53:50;;;;;;;0.85;0.85;;;2.90;99.90;;;;;;4961095;28;20030;-74
2023/12/15 04:56:17;;;;;;;0.75;0.75;;;2.90;99.90;;;;;;4960109;28;20035;-73
2023/12/15 04:58:43;;;;;;;2.08;0.88;;;2.90;98.00;;;;;;4965333;28;20031;-74
2023/12/15 05:01:13;;;;;;;0.80;0.80;;;2.90;99.90;;;;;;4965337;28;20030;-74
2023/12/15 05:03:44;;;;;;;2.00;1.90;;;2.90;99.90;;;;;;4965147;28;20027;-74
2023/12/15 05:06:17;;;;;;;2.53;0.47;;;2.90;99.90;;;;;;4936868;28;20050;-74
2023/12/15 05:08:44;;;;;;;0.85;0.82;;;2.90;99.90;;;;;;4963311;28;20035;-74
2023/12/15 05:11:10;;;;;;;5.35;1.55;;;3.00;99.90;;;;;;4964999;28;20034;-74
2023/12/15 05:13:36;;;;;;;0.57;0.57;;;3.00;99.90;;;;;;4965698;28;20039;-75
2023/12/15 05:16:03;;;;;;;0.75;0.75;;;3.00;95.70;;;;;;4960819;28;20055;-76
2023/12/15 05:18:29;;;;;;;0.20;0.20;;;3.00;85.10;;;;;;4965091;28;20058;-75
2023/12/15 05:20:55;;;;;;;3.45;3.15;;;3.00;91.10;;;;;;4964697;28;20050;-75
2023/12/15 05:23:22;;;;;;;4.07;2.00;;;3.00;72.20;;;;;;4964113;28;20484;-75
2023/12/15 05:25:48;;;;;;;1.90;1.10;;;3.10;62.20;;;;;;4959591;28;20046;-76
2023/12/15 05:28:14;;;;;;;0.85;0.85;;;3.10;65.10;;;;;;4959110;28;20035;-75
2023/12/15 05:30:40;;;;;;;3.58;1.02;;;3.10;55.20;;;;;;4959969;28;20031;-75
2023/12/15 05:33:06;;;;;;;0.65;0.65;;;3.10;26.90;;;;;;4965565;28;20026;-75
2023/12/15 05:35:35;;;;;;;0.82;0.82;;;3.10;4.80;;;;;;4963431;28;20043;-75
2023/12/15 05:38:02;;;;;;;2.13;2.03;;;3.20;1.00;;;;;;4955968;28;20046;-76
2023/12/15 05:40:29;;;;;;;2.40;1.02;;;3.20;1.00;;;;;;4946308;28;20483;-75
2023/12/15 05:42:55;;;;;;;0.80;0.80;;;3.30;1.00;;;;;;4961464;28;20051;-75
2023/12/15 05:45:21;;;;;;;1.45;1.00;;;3.30;1.00;;;;;;4963533;28;20047;-75
2023/12/15 05:47:48;;;;;;;0.80;0.80;;;3.40;1.00;;;;;;4961562;28;20385;-76
2023/12/15 05:50:15;;;;;;;0.45;0.45;;;3.30;1.00;;;;;;4945388;28;20047;-75
2023/12/15 05:52:42;;;;;;;0.95;0.93;;;3.30;1.00;;;;;;4969149;28;20033;-75
2023/12/15 05:55:08;;;;;;;2.20;1.10;;;3.40;1.00;;;;;;4969008;28;20588;-75
2023/12/15 05:57:34;;;;;;;0.65;0.65;;;3.40;1.00;;;;;;4966133;28;20039;-75
2023/12/15 06:00:00;;;;;;;2.05;1.23;;;3.40;1.00;;;;;;4944216;28;20035;-75
2023/12/15 06:02:26;;;;;;;0.35;0.30;;;3.40;1.00;;;;;;4962950;28;20124;-75
2023/12/15 06:04:53;;;;;;;1.98;1.38;;;3.40;1.00;;;;;;4967334;28;20038;-75
2023/12/15 06:07:19;;;;;;;0.70;0.70;;;3.50;1.00;;;;;;4968299;28;20099;-75
2023/12/15 06:09:45;;;;;;;1.63;1.52;;;3.50;1.00;;;;;;4961787;28;20046;-75
2023/12/15 06:12:11;;;;;;;0.43;0.43;;;3.50;1.00;;;;;;4962321;28;20047;-75
2023/12/15 06:14:38;;;;;;;2.05;1.85;;;3.50;1.00;;;;;;4951158;28;20370;-75
2023/12/15 06:17:07;;;;;;;0.73;0.73;;;3.60;1.00;;;;;;4967480;28;20066;-75
2023/12/15 06:19:37;;;;;;;1.48;1.38;;;3.70;1.00;;;;;;4945302;28;20039;-75
2023/12/15 06:22:04;;;;;;;0.77;0.75;;;3.60;1.00;;;;;;4963173;28;20043;-75
2023/12/15 06:24:30;;;;;;;1.52;1.42;;;3.70;1.00;;;;;;4950796;28;20050;-75
2023/12/15 06:26:56;;;;;;;0.22;0.22;;;3.70;1.00;;;;;;4967566;28;20035;-75
2023/12/15 06:29:22;;;;;;;0.40;0.40;;;3.70;1.00;;;;;;4965605;28;20031;-75
2023/12/15 06:31:48;;;;;;;1.48;1.40;;;3.70;1.00;;;;;;4962403;28;20384;-76
2023/12/15 06:34:15;;;;;;;1.67;1.52;;;3.70;1.00;;;;;;4948816;28;20047;-75
2023/12/15 06:36:41;;;;;;;2.60;2.20;;;3.70;1.00;;;;;;4955081;28;20043;-75
2023/12/15 06:39:07;;;;;;;1.90;1.80;;;3.70;3.20;;;;;;4967071;28;20038;-75
2023/12/15 06:41:33;;;;;;;1.73;1.42;;;3.70;10.70;;;;;;4961582;28;20031;-75
2023/12/15 06:44:00;;;;;;;1.60;0.82;;;3.70;26.50;;;;;;4965153;28;20469;-75
2023/12/15 06:46:26;;;;;;;3.53;2.03;;;3.60;42.10;;;;;;4965685;28;20400;-75
2023/12/15 06:48:53;;;;;;;1.05;0.88;;;3.60;81.30;;;;;;4969574;28;20042;-76
2023/12/15 06:51:20;;;;;;;1.17;0.82;;;3.60;99.90;;;;;;4962991;28;20026;-75
2023/12/15 06:53:46;;;;;;;2.13;1.92;;;3.70;99.90;;;;;;4961799;28;20027;-75
2023/12/15 06:56:12;;;;;;;1.40;0.70;;;3.70;99.90;;;;;;4965014;28;20039;-74
2023/12/15 06:58:38;;;;;;;1.10;1.02;;;3.70;99.90;;;;;;4967962;28;20042;-75
2023/12/15 07:01:04;;;;;;;3.45;1.10;;;3.80;99.90;;;;;;4966155;28;20049;-75
2023/12/15 07:03:31;;;;;;;0.85;0.85;;;3.80;99.90;;;;;;4964050;28;20038;-75
2023/12/15 07:05:57;;;;;;;0.90;0.88;;;3.70;97.60;;;;;;4966872;28;20046;-75
2023/12/15 07:08:23;;;;;;;1.13;1.10;;;3.70;95.50;;;;;;4965357;28;20035;-75
2023/12/15 07:10:50;;;;;;;1.65;1.58;;;3.70;99.90;;;;;;4963495;28;20039;-76
2023/12/15 07:13:16;;;;;;;1.33;1.23;;;3.80;99.90;;;;;;4962294;28;20042;-74
2023/12/15 07:15:42;;;;;;;0.82;0.82;;;3.80;99.90;;;;;;4965533;28;20044;-75
2023/12/15 07:18:08;;;;;;;1.92;1.83;;;3.80;99.90;;;;;;4963922;28;20041;-75
2023/12/15 07:20:35;;;;;;;1.40;1.30;;;3.80;99.90;;;;;;4965250;28;20027;-75
2023/12/15 07:23:01;;;;;;;3.03;2.72;;;3.90;99.90;;;;;;4964335;28;20031;-74
2023/12/15 07:25:27;;;;;;;1.40;1.30;;;3.90;99.90;;;;;;4962647;28;20031;-75
2023/12/15 07:27:53;;;;;;;0.60;0.60;;;3.90;99.90;;;;;;4963041;28;20035;-75
2023/12/15 07:30:21;;;;;;;1.75;1.65;;;3.90;99.90;;;;;;4963770;28;20464;-75
2023/12/15 07:32:47;;;;;;;1.80;1.17;;;3.90;99.90;;;;;;4967262;28;20492;-75
2023/12/15 07:35:13;;;;;;;4.22;1.55;;;4.00;99.90;;;;;;4963098;28;20035;-75
2023/12/15 07:37:39;;;;;;;3.97;1.85;;;4.00;99.90;;;;;;4963391;28;20046;-75
2023/12/15 07:40:06;;;;;;;0.22;0.22;;;4.10;99.90;;;;;;4963402;28;20031;-75
2023/12/15 07:42:32;;;;;;;0.50;0.50;;;4.20;99.90;;;;;;4967554;28;20038;-75
2023/12/15 07:44:59;;;;;;;6.38;1.58;;;4.20;97.30;;;;;;4962217;28;20039;-75
2023/12/15 07:47:25;;;;;;;1.35;1.33;;;4.40;87.40;;;;;;4960622;28;20087;-76
2023/12/15 07:49:51;;;;;;;3.42;2.35;;;4.40;38.20;;;;;;4960933;28;20034;-75
2023/12/15 07:52:17;;;;;;;4.25;2.63;;;4.50;1.00;;;;;;4965114;28;20038;-75
2023/12/15 07:54:43;;;;;;;1.48;1.38;;;4.60;1.00;;;;;;4965640;28;20038;-75
2023/12/15 07:57:10;;;;;;;0.82;0.82;;;4.60;1.00;;;;;;4960693;28;20043;-75
2023/12/15 07:59:36;;;;;;;1.17;1.13;;;4.60;1.00;;;;;;4958612;28;20043;-75
2023/12/15 08:02:03;;;;;;;2.33;1.65;;;4.60;1.00;;;;;;4965451;28;20039;-75
2023/12/15 08:04:30;;;;;;;2.10;2.00;;;4.70;1.00;;;;;;4963265;28;20043;-75
2023/12/15 08:06:56;;;;;;;2.17;1.58;;;4.70;1.00;;;;;;4965157;28;20051;-75
2023/12/15 08:09:22;;;;;;;3.45;2.25;;;4.70;1.00;;;;;;4962046;28;20050;-75
2023/12/15 08:11:48;;;;;;;6.25;1.98;;;4.70;1.00;;;;;;4965593;28;20472;-75
2023/12/15 08:14:14;;;;;;;1.20;1.15;;;4.80;99.90;;;;;;4964776;28;20046;-75
2023/12/15 08:16:41;;;;;;;7.43;2.42;;;4.70;99.90;;;;;;4964685;28;20035;-74
2023/12/15 08:19:08;;;;;;;1.48;1.38;;;4.80;99.90;;;;;;4959812;28;20070;-74
2023/12/15 08:21:34;;;;;;;2.55;2.17;;;4.80;99.90;;;;;;4963272;28;20034;-74
2023/12/15 08:24:00;;;;;;;1.33;0.93;;;4.80;99.90;;;;;;4965923;28;20452;-74
2023/12/15 08:26:27;;;;;;;2.30;1.77;;;4.80;99.90;;;;;;4966495;28;20038;-75
2023/12/15 08:28:54;;;;;;;2.72;2.17;;;4.90;99.90;;;;;;4966833;28;20027;-74
2023/12/15 08:31:24;;;;;;;4.82;1.40;;;4.90;99.90;;;;;;4957540;28;20042;-74
2023/12/15 08:33:51;;;;;;;0.80;0.80;;;4.90;99.90;;;;;;4967070;28;20034;-74
2023/12/15 08:36:18;;;;;;;0.82;0.80;;;5.00;99.90;;;;;;4964433;28;20047;-74
2023/12/15 08:38:44;;;;;;;2.53;2.33;;;5.10;99.90;;;;;;4966953;28;20042;-74
2023/12/15 08:41:10;;;;;;;7.72;2.45;;;5.20;99.90;;;;;;4959906;28;20035;-74
2023/12/15 08:43:36;;;;;;;3.22;2.50;;;5.30;99.90;;;;;;4965105;28;20031;-74
2023/12/15 08:46:03;;;;;;;8.88;1.90;;;5.30;99.90;;;;;;4965627;28;20481;-74
2023/12/15 08:48:30;;;;;;;3.05;1.08;;;5.30;99.90;;;;;;4964952;28;20058;-75
2023/12/15 08:50:56;;;;;;;1.10;1.05;;;5.30;99.90;;;;;;4960194;28;20031;-75
2023/12/15 08:53:22;;;;;;;6.18;5.57;;;5.30;99.90;;;;;;4963698;28;20031;-74
2023/12/15 08:55:49;;;;;;;8.05;4.57;;;5.30;99.90;;;;;;4964774;28;20357;-74
2023/12/15 08:58:15;;;;;;;9.00;7.63;;;5.30;99.90;;;;;;4966179;28;20111;-74
2023/12/15 09:00:42;;;;;;;8.27;6.80;;;5.40;99.90;;;;;;4953134;28;20035;-74
2023/12/15 09:03:08;;;;;;;3.22;3.03;;;5.40;99.90;;;;;;4960037;28;20035;-73
2023/12/15 09:05:35;;;;;;;1.90;1.48;;;5.50;99.90;;;;;;4963725;28;20495;-73
2023/12/15 09:08:02;;;;;;;2.70;2.50;;;5.60;99.90;;;;;;4964320;28;20372;-73
2023/12/15 09:10:33;;;;;;;2.90;2.45;;;5.70;99.90;;;;;;4960187;28;20042;-73
2023/12/15 09:13:02;;;;;;;6.28;2.38;;;5.70;99.90;;;;;;4958232;28;20035;-72
2023/12/15 09:15:30;;;;;;;2.35;1.85;;;5.80;99.90;;;;;;4963931;28;20035;-73
2023/12/15 09:17:56;;;;;;;3.83;3.45;;;5.80;99.90;;;;;;4964032;28;20039;-73
2023/12/15 09:20:24;;;;;;;2.10;1.92;;;5.90;99.90;;;;;;4963891;28;20058;-72
2023/12/15 09:22:50;;;;;;;6.97;3.63;;;6.00;99.90;;;;;;4963050;28;20441;-73
2023/12/15 09:25:16;;;;;;;2.05;1.95;;;6.00;99.90;;;;;;4962486;28;20042;-72
2023/12/15 09:27:42;;;;;;;4.90;3.55;;;6.10;99.90;;;;;;4968810;28;20034;-71
2023/12/15 09:30:09;;;;;;;2.25;1.42;;;6.10;99.90;;;;;;4967399;28;20039;-72
2023/12/15 09:32:35;;;;;;;2.45;1.88;;;6.20;99.90;;;;;;4969588;28;20495;-72
2023/12/15 09:35:01;;;;;;;1.95;1.85;;;6.30;99.90;;;;;;4963015;28;20038;-73
2023/12/15 09:37:27;;;;;;;0.68;0.68;;;6.30;99.90;;;;;;4965305;28;20030;-73
2023/12/15 09:39:54;;;;;;;2.67;2.53;;;6.30;99.90;;;;;;4969203;28;20059;-73
2023/12/15 09:42:22;;;;;;;1.48;1.38;;;6.40;99.90;;;;;;4966458;28;20038;-72
2023/12/15 09:44:49;;;;;;;1.92;1.83;;;6.40;99.90;;;;;;4963109;28;20050;-73
2023/12/15 09:47:20;;;;;;;1.67;1.58;;;6.40;99.90;;;;;;4963796;28;20481;-73
2023/12/15 09:49:51;;;;;;;1.17;1.08;;;6.40;99.90;;;;;;4969225;28;20054;-73
2023/12/15 09:52:17;;;;;;;1.67;1.58;;;6.40;95.60;;;;;;4965807;28;20032;-73
2023/12/15 09:54:44;;;;;;;3.08;2.17;;;6.40;84.70;;;;;;4965865;28;20480;-73
2023/12/15 09:57:13;;;;;;;2.95;2.38;;;6.50;74.60;;;;;;4962796;28;20035;-73
2023/12/15 09:59:42;;;;;;;1.33;1.23;;;6.50;65.40;;;;;;4967144;28;20046;-73
2023/12/15 10:02:08;;;;;;;7.28;1.77;;;6.50;77.40;;;;;;4966768;28;20513;-74
2023/12/15 10:04:35;;;;;;;4.05;3.65;;;6.50;73.10;;;;;;4968442;28;20035;-73
2023/12/15 10:07:02;;;;;;;2.72;2.22;;;6.60;70.40;;;;;;4967370;28;20039;-73
2023/12/15 10:09:28;;;;;;;4.80;2.13;;;6.60;46.30;;;;;;4965658;28;20054;-73
2023/12/15 10:11:54;;;;;;;3.22;1.75;;;6.70;29.90;;;;;;4958282;28;20030;-73
2023/12/15 10:14:21;;;;;;;2.88;2.60;;;6.80;44.60;;;;;;4963567;28;20031;-73
2023/12/15 10:16:48;;;;;;;1.63;1.52;;;6.90;16.00;;;;;;4963408;28;20049;-72
2023/12/15 10:19:14;;;;;;;5.65;2.08;;;7.00;1.00;;;;;;4966835;28;20035;-73
2023/12/15 10:21:40;;;;;;;2.22;2.00;;;7.20;1.00;;;;;;4973604;28;20031;-73
2023/12/15 10:24:22;;;;;;;2.03;1.85;;;7.20;1.00;;;;;;4966341;28;20468;-73
2023/12/15 10:26:49;;;;;;;2.20;2.05;;;7.20;1.00;;;;;;4963141;28;20047;-72
2023/12/15 10:29:18;;;;;;;1.48;1.35;;;7.20;1.00;;;;;;4966441;28;20027;-73
2023/12/15 10:31:45;;;;;;;1.38;1.23;;;7.30;1.00;;;;;;4972715;28;20035;-73
2023/12/15 10:34:13;;;;;;;2.47;2.28;;;7.20;1.00;;;;;;4972607;28;20023;-73
2023/12/15 10:36:44;;;;;;;1.25;1.15;;;7.20;1.00;;;;;;4970866;28;20057;-73
2023/12/15 10:39:12;;;;;;;3.55;1.85;;;7.20;1.00;;;;;;4961971;28;20474;-73
2023/12/15 10:41:40;;;;;;;4.25;1.75;;;7.20;1.00;;;;;;4967381;28;20495;-74
2023/12/15 10:44:11;;;;;;;0.95;0.95;;;7.20;1.00;;;;;;4965679;28;20035;-73
2023/12/15 10:46:42;;;;;;;1.27;1.17;;;7.20;1.00;;;;;;4968418;28;20540;-72
2023/12/15 10:49:09;;;;;;;3.08;1.73;;;7.20;1.00;;;;;;4964815;28;20046;-73
2023/12/15 10:51:40;;;;;;;1.35;1.13;;;7.40;1.00;;;;;;4969640;28;20031;-74
2023/12/15 10:54:08;;;;;;;3.25;2.22;;;7.40;1.00;;;;;;4970613;28;20035;-74
2023/12/15 10:56:39;;;;;;;4.30;2.60;;;7.50;1.00;;;;;;4972680;28;20648;-73
2023/12/15 10:59:07;;;;;;;2.42;2.22;;;7.60;1.00;;;;;;4962524;28;20408;-73
2023/12/15 11:01:35;;;;;;;4.85;2.35;;;7.60;1.00;;;;;;4967488;28;20460;-73
2023/12/15 11:04:15;;;;;;;1.67;1.58;;;7.60;1.00;;;;;;4965406;28;20039;-73
2023/12/15 11:06:41;;;;;;;2.53;2.33;;;7.60;1.00;;;;;;4969958;28;20059;-77
2023/12/15 11:09:07;;;;;;;9.98;3.13;;;7.40;1.00;;;;;;4963233;28;20039;-78
2023/12/15 11:11:33;;;;;;;2.25;1.55;;;7.40;1.00;;;;;;4964447;28;20030;-76
2023/12/15 11:14:01;;;;;;;3.65;3.22;;;7.30;18.80;;;;;;4957308;28;20027;-77
2023/12/15 11:16:29;;;;;;;3.65;2.90;;;7.20;47.30;;;;;;4965553;28;20058;-77
2023/12/15 11:18:57;;;;;;;6.07;4.22;;;7.20;91.00;;;;;;4968358;28;20054;-77
2023/12/15 11:21:24;;;;;;;3.28;2.72;;;7.10;99.90;;;;;;4960691;28;20038;-77
2023/12/15 11:24:02;;;;;;;4.40;3.45;;;7.10;99.90;;;;;;4954422;28;20042;-77
2023/12/15 11:26:30;;;;;;;2.65;2.45;;;7.10;99.90;;;;;;4959140;28;20481;-77
2023/12/15 11:29:02;;;;;;;2.28;2.05;;;7.00;99.90;;;;;;4962073;28;20035;-77
2023/12/15 11:31:28;;;;;;;1.63;1.48;;;7.00;99.90;;;;;;4951722;28;20035;-77
2023/12/15 11:33:55;;;;;;;3.42;2.53;;;6.90;99.90;;;;;;4949591;28;20027;-76
2023/12/15 11:36:21;;;;;;;1.05;1.05;;;6.90;99.90;;;;;;4962754;28;20042;-79
2023/12/15 11:38:48;;;;;;;1.55;1.45;;;6.90;99.90;;;;;;4951108;28;20046;-78
2023/12/15 11:41:22;;;;;;;1.35;1.25;;;7.00;99.90;;;;;;4967913;28;20034;-78
2023/12/15 11:43:52;;;;;;;2.65;2.45;;;7.10;99.90;;;;;;4964172;28;20492;-78
2023/12/15 11:46:22;;;;;;;10.13;2.33;;;7.10;99.90;;;;;;4961809;28;20066;-78
2023/12/15 11:48:49;;;;;;;3.45;3.17;;;7.20;99.90;;;;;;4966642;28;20049;-79
2023/12/15 11:51:17;;;;;;;2.72;2.08;;;7.20;99.90;;;;;;4964148;28;20039;-79
2023/12/15 11:53:47;;;;;;;2.35;2.15;;;7.20;99.90;;;;;;4962208;28;20042;-78
2023/12/15 11:56:14;;;;;;;1.58;1.40;;;7.20;99.90;;;;;;4961621;28;20026;-78
2023/12/15 11:58:41;;;;;;;4.00;1.88;;;7.30;99.90;;;;;;4968220;28;20062;-78
2023/12/15 12:01:08;;;;;;;2.38;2.10;;;7.30;99.90;;;;;;4965273;28;20050;-78
2023/12/15 12:03:36;;;;;;;1.08;1.08;;;7.30;99.90;;;;;;4965594;28;20035;-78
2023/12/15 12:06:07;;;;;;;1.20;1.10;;;7.20;99.90;;;;;;4948487;28;20024;-78
2023/12/15 12:08:36;;;;;;;2.38;1.90;;;7.30;99.90;;;;;;4964362;28;20039;-79
2023/12/15 12:11:04;;;;;;;5.95;2.55;;;7.20;99.90;;;;;;4967318;28;20039;-78
2023/12/15 12:13:37;;;;;;;3.33;2.55;;;7.20;99.90;;;;;;4964458;28;20393;-76
2023/12/15 12:16:04;;;;;;;4.63;3.28;;;7.20;99.90;;;;;;4958920;28;20047;-77
2023/12/15 12:18:31;;;;;;;6.22;3.00;;;7.20;99.90;;;;;;4962585;28;20038;-78
2023/12/15 12:21:02;;;;;;;2.20;1.67;;;7.20;99.90;;;;;;4963632;28;20037;-79
2023/12/15 12:23:29;;;;;;;1.27;1.20;;;7.20;99.90;;;;;;4965125;28;20038;-78
2023/12/15 12:25:56;;;;;;;2.45;2.30;;;7.30;99.90;;;;;;4958921;28;20035;-77
2023/12/15 12:28:37;;;;;;;2.58;2.38;;;7.30;99.90;;;;;;4961271;28;20050;-78
2023/12/15 12:31:03;;;;;;;4.70;2.95;;;7.30;99.90;;;;;;4965170;28;20058;-75
2023/12/15 12:33:30;;;;;;;2.20;2.00;;;7.20;99.90;;;;;;4965468;28;20024;-76
2023/12/15 12:35:57;;;;;;;2.40;2.20;;;7.20;99.90;;;;;;4960662;28;20023;-75
2023/12/15 12:38:23;;;;;;;2.95;2.70;;;7.20;99.90;;;;;;4967306;28;20037;-75
2023/12/15 12:40:49;;;;;;;2.65;2.45;;;7.10;99.90;;;;;;4967065;28;20038;-76
2023/12/15 12:43:15;;;;;;;3.28;2.15;;;7.10;99.90;;;;;;4964210;28;20034;-76
2023/12/15 12:45:42;;;;;;;1.52;1.20;;;7.20;99.90;;;;;;4961437;28;20046;-77
2023/12/15 12:48:08;;;;;;;2.75;1.42;;;7.10;99.90;;;;;;4951112;28;20388;-80
2023/12/15 12:50:34;;;;;;;2.10;1.52;;;7.10;99.90;;;;;;4941213;28;20039;-79
2023/12/15 12:53:00;;;;;;;5.47;0.93;;;7.00;99.90;;;;;;4962174;28;20425;-79
2023/12/15 12:55:28;;;;;;;1.35;1.25;;;7.10;1.00;;;;;;4965045;28;20057;-78
2023/12/15 12:57:55;;;;;;;2.10;1.95;;;7.00;1.00;;;;;;4954170;28;20035;-79